sensor_id;sensor_type;location;lat;lon;timestamp;temperature;humidity
12887;DHT22;6511;49.746;6.094;2022-10-16T07:27:13;13.60;99.90
12887;DHT22;6511;49.746;6.094;2022-10-16T07:29:39;13.70;99.90
12887;DHT22;6511;49.746;6.094;2022-10-16T07:32:05;13.80;99.90
12887;DHT22;6511;49.746;6.094;2022-10-16T07:34:31;13.80;99.90
12887;DHT22;6511;49.746;6.094;2022-10-16T07:36:56;13.80;99.90
12887;DHT22;6511;49.746;6.094;2022-10-16T07:39:22;13.90;99.90
12887;DHT22;6511;49.746;6.094;2022-10-16T07:41:47;14.00;99.90
12887;DHT22;6511;49.746;6.094;2022-10-16T07:44:13;14.00;99.90
12887;DHT22;6511;49.746;6.094;2022-10-16T07:46:38;14.10;99.90
12887;DHT22;6511;49.746;6.094;2022-10-16T07:49:04;14.10;99.90
12887;DHT22;6511;49.746;6.094;2022-10-16T07:51:30;14.10;99.90
12887;DHT22;6511;49.746;6.094;2022-10-16T07:53:56;14.10;99.90
12887;DHT22;6511;49.746;6.094;2022-10-16T07:56:22;14.00;99.90
12887;DHT22;6511;49.746;6.094;2022-10-16T07:58:48;14.10;99.90
12887;DHT22;6511;49.746;6.094;2022-10-16T08:01:15;14.00;99.90
12887;DHT22;6511;49.746;6.094;2022-10-16T08:03:46;14.10;99.90
12887;DHT22;6511;49.746;6.094;2022-10-16T08:06:12;14.10;99.90
12887;DHT22;6511;49.746;6.094;2022-10-16T08:08:38;14.10;99.90
12887;DHT22;6511;49.746;6.094;2022-10-16T08:11:04;14.20;99.90
12887;DHT22;6511;49.746;6.094;2022-10-16T08:13:30;14.30;99.90
12887;DHT22;6511;49.746;6.094;2022-10-16T08:15:56;14.40;99.90
12887;DHT22;6511;49.746;6.094;2022-10-16T08:18:22;14.40;99.90
12887;DHT22;6511;49.746;6.094;2022-10-16T08:20:47;14.50;99.90
12887;DHT22;6511;49.746;6.094;2022-10-16T08:23:13;14.50;99.90
12887;DHT22;6511;49.746;6.094;2022-10-16T08:25:40;14.60;99.90
12887;DHT22;6511;49.746;6.094;2022-10-16T08:28:07;14.70;99.90
12887;DHT22;6511;49.746;6.094;2022-10-16T08:30:33;14.60;99.90
12887;DHT22;6511;49.746;6.094;2022-10-16T08:32:59;14.80;99.90
12887;DHT22;6511;49.746;6.094;2022-10-16T08:35:25;14.90;99.90
12887;DHT22;6511;49.746;6.094;2022-10-16T08:37:51;14.90;99.90
12887;DHT22;6511;49.746;6.094;2022-10-16T08:45:57;14.90;99.90
12887;DHT22;6511;49.746;6.094;2022-10-16T08:48:42;15.00;99.90
12887;DHT22;6511;49.746;6.094;2022-10-16T08:51:14;14.90;99.90
12887;DHT22;6511;49.746;6.094;2022-10-16T08:53:53;15.00;99.90
12887;DHT22;6511;49.746;6.094;2022-10-16T08:56:19;15.00;99.90
12887;DHT22;6511;49.746;6.094;2022-10-16T08:58:46;15.00;99.90
12887;DHT22;6511;49.746;6.094;2022-10-16T09:01:14;15.00;99.90
12887;DHT22;6511;49.746;6.094;2022-10-16T09:06:41;15.10;99.90
12887;DHT22;6511;49.746;6.094;2022-10-16T09:23:15;15.40;99.90
12887;DHT22;6511;49.746;6.094;2022-10-16T09:25:45;15.50;99.90
12887;DHT22;6511;49.746;6.094;2022-10-16T09:28:13;15.50;99.90
12887;DHT22;6511;49.746;6.094;2022-10-16T09:30:38;15.50;99.90
12887;DHT22;6511;49.746;6.094;2022-10-16T09:33:05;15.50;99.90
12887;DHT22;6511;49.746;6.094;2022-10-16T09:35:48;15.60;99.90
12887;DHT22;6511;49.746;6.094;2022-10-16T09:38:30;15.60;99.90
12887;DHT22;6511;49.746;6.094;2022-10-16T09:40:58;15.50;99.90
12887;DHT22;6511;49.746;6.094;2022-10-16T09:46:32;15.60;99.90
12887;DHT22;6511;49.746;6.094;2022-10-16T09:49:18;15.80;99.90
12887;DHT22;6511;49.746;6.094;2022-10-16T09:51:44;15.90;99.90
12887;DHT22;6511;49.746;6.094;2022-10-16T09:54:18;16.10;99.90
12887;DHT22;6511;49.746;6.094;2022-10-16T09:56:44;16.10;99.90
12887;DHT22;6511;49.746;6.094;2022-10-16T09:59:17;16.20;99.90
12887;DHT22;6511;49.746;6.094;2022-10-16T10:01:51;16.20;99.90
12887;DHT22;6511;49.746;6.094;2022-10-16T10:04:20;16.30;99.90
12887;DHT22;6511;49.746;6.094;2022-10-16T10:06:48;16.40;99.90
12887;DHT22;6511;49.746;6.094;2022-10-16T10:11:52;16.60;99.90
12887;DHT22;6511;49.746;6.094;2022-10-16T10:14:30;16.50;99.90
12887;DHT22;6511;49.746;6.094;2022-10-16T10:19:52;16.60;99.90
12887;DHT22;6511;49.746;6.094;2022-10-16T10:22:40;16.50;99.90
12887;DHT22;6511;49.746;6.094;2022-10-16T10:30:53;16.60;99.90
12887;DHT22;6511;49.746;6.094;2022-10-16T10:36:29;16.80;99.90
12887;DHT22;6511;49.746;6.094;2022-10-16T10:39:00;17.10;99.90
12887;DHT22;6511;49.746;6.094;2022-10-16T10:44:30;17.20;99.90
12887;DHT22;6511;49.746;6.094;2022-10-16T10:47:35;17.30;99.90
12887;DHT22;6511;49.746;6.094;2022-10-16T10:50:25;17.30;99.90
12887;DHT22;6511;49.746;6.094;2022-10-16T11:04:47;17.70;99.90
12887;DHT22;6511;49.746;6.094;2022-10-16T11:07:21;17.60;99.90
12887;DHT22;6511;49.746;6.094;2022-10-16T11:09:57;17.60;99.90
12887;DHT22;6511;49.746;6.094;2022-10-16T11:12:30;17.60;99.90
12887;DHT22;6511;49.746;6.094;2022-10-16T11:20:56;17.30;99.90
12887;DHT22;6511;49.746;6.094;2022-10-16T11:23:30;17.30;99.90
12887;DHT22;6511;49.746;6.094;2022-10-16T11:26:00;17.30;99.90
12887;DHT22;6511;49.746;6.094;2022-10-16T11:28:32;17.30;99.90
12887;DHT22;6511;49.746;6.094;2022-10-16T11:31:13;17.30;99.90
12887;DHT22;6511;49.746;6.094;2022-10-16T11:34:01;17.50;99.90
12887;DHT22;6511;49.746;6.094;2022-10-16T11:37:19;17.50;99.90
12887;DHT22;6511;49.746;6.094;2022-10-16T11:39:44;17.50;99.90
12887;DHT22;6511;49.746;6.094;2022-10-16T11:42:48;17.50;99.90
12887;DHT22;6511;49.746;6.094;2022-10-16T11:48:27;17.50;99.90
12887;DHT22;6511;49.746;6.094;2022-10-16T11:51:06;17.50;99.90
12887;DHT22;6511;49.746;6.094;2022-10-16T11:53:42;17.70;99.90
12887;DHT22;6511;49.746;6.094;2022-10-16T11:56:18;17.70;99.90
12887;DHT22;6511;49.746;6.094;2022-10-16T11:59:17;17.80;99.90
12887;DHT22;6511;49.746;6.094;2022-10-16T12:04:34;17.80;99.90
12887;DHT22;6511;49.746;6.094;2022-10-16T12:07:08;17.80;99.90
12887;DHT22;6511;49.746;6.094;2022-10-16T12:09:37;18.00;99.90
12887;DHT22;6511;49.746;6.094;2022-10-16T12:12:04;18.20;99.90
12887;DHT22;6511;49.746;6.094;2022-10-16T12:19:29;18.10;99.90
12887;DHT22;6511;49.746;6.094;2022-10-16T12:22:00;17.90;99.90
12887;DHT22;6511;49.746;6.094;2022-10-16T12:26:52;17.90;99.90
12887;DHT22;6511;49.746;6.094;2022-10-16T12:31:47;17.80;99.90
12887;DHT22;6511;49.746;6.094;2022-10-16T12:34:27;17.80;99.90
12887;DHT22;6511;49.746;6.094;2022-10-16T12:36:54;17.70;99.90
12887;DHT22;6511;49.746;6.094;2022-10-16T12:39:22;17.80;99.90
12887;DHT22;6511;49.746;6.094;2022-10-16T12:42:01;17.80;99.90
12887;DHT22;6511;49.746;6.094;2022-10-16T12:44:33;17.80;99.90
12887;DHT22;6511;49.746;6.094;2022-10-16T12:46:58;17.80;99.90
12887;DHT22;6511;49.746;6.094;2022-10-16T12:49:35;18.00;99.90
12887;DHT22;6511;49.746;6.094;2022-10-16T12:52:02;18.10;99.90
12887;DHT22;6511;49.746;6.094;2022-10-16T12:54:35;18.10;99.90
12887;DHT22;6511;49.746;6.094;2022-10-16T13:11:07;17.90;99.90
12887;DHT22;6511;49.746;6.094;2022-10-16T13:16:43;18.10;99.90
12887;DHT22;6511;49.746;6.094;2022-10-16T13:22:58;18.30;99.90
12887;DHT22;6511;49.746;6.094;2022-10-16T13:27:59;18.20;99.90
12887;DHT22;6511;49.746;6.094;2022-10-16T13:30:26;18.10;99.90
12887;DHT22;6511;49.746;6.094;2022-10-16T13:33:34;18.10;99.90
12887;DHT22;6511;49.746;6.094;2022-10-16T13:35:58;18.00;99.90
12887;DHT22;6511;49.746;6.094;2022-10-16T13:38:25;17.80;99.90
12887;DHT22;6511;49.746;6.094;2022-10-16T13:40:57;18.00;99.90
12887;DHT22;6511;49.746;6.094;2022-10-16T13:43:42;17.70;99.90
12887;DHT22;6511;49.746;6.094;2022-10-16T13:46:14;17.80;99.90
12887;DHT22;6511;49.746;6.094;2022-10-16T13:48:41;17.80;99.90
12887;DHT22;6511;49.746;6.094;2022-10-16T13:51:16;17.70;99.90
12887;DHT22;6511;49.746;6.094;2022-10-16T13:53:43;17.70;99.90
12887;DHT22;6511;49.746;6.094;2022-10-16T13:56:26;17.80;99.90
12887;DHT22;6511;49.746;6.094;2022-10-16T13:59:34;17.90;99.90
12887;DHT22;6511;49.746;6.094;2022-10-16T14:02:08;17.90;99.90
12887;DHT22;6511;49.746;6.094;2022-10-16T14:04:40;18.00;99.90
12887;DHT22;6511;49.746;6.094;2022-10-16T14:07:23;18.00;99.90
12887;DHT22;6511;49.746;6.094;2022-10-16T14:09:50;18.10;99.90
12887;DHT22;6511;49.746;6.094;2022-10-16T14:12:17;18.00;99.90
12887;DHT22;6511;49.746;6.094;2022-10-16T14:14:47;18.00;99.90
12887;DHT22;6511;49.746;6.094;2022-10-16T14:17:28;18.10;99.90
12887;DHT22;6511;49.746;6.094;2022-10-16T14:19:57;18.00;99.90
12887;DHT22;6511;49.746;6.094;2022-10-16T14:22:42;17.90;99.90
12887;DHT22;6511;49.746;6.094;2022-10-16T14:28:19;18.00;99.90
12887;DHT22;6511;49.746;6.094;2022-10-16T14:33:23;18.00;99.90
12887;DHT22;6511;49.746;6.094;2022-10-16T14:38:28;17.90;99.90
12887;DHT22;6511;49.746;6.094;2022-10-16T14:40:54;17.90;99.90
12887;DHT22;6511;49.746;6.094;2022-10-16T14:43:36;17.80;99.90
12887;DHT22;6511;49.746;6.094;2022-10-16T14:46:12;17.80;99.90
12887;DHT22;6511;49.746;6.094;2022-10-16T14:49:03;17.70;99.90
12887;DHT22;6511;49.746;6.094;2022-10-16T14:51:30;17.70;99.90
12887;DHT22;6511;49.746;6.094;2022-10-16T14:53:56;17.70;99.90
12887;DHT22;6511;49.746;6.094;2022-10-16T14:56:24;17.60;99.90
12887;DHT22;6511;49.746;6.094;2022-10-16T14:58:51;17.60;99.90
12887;DHT22;6511;49.746;6.094;2022-10-16T15:01:17;17.70;99.90
12887;DHT22;6511;49.746;6.094;2022-10-16T15:03:43;17.80;99.90
12887;DHT22;6511;49.746;6.094;2022-10-16T15:06:13;17.70;99.90
12887;DHT22;6511;49.746;6.094;2022-10-16T15:08:39;17.80;99.90
12887;DHT22;6511;49.746;6.094;2022-10-16T15:11:10;17.90;99.90
12887;DHT22;6511;49.746;6.094;2022-10-16T15:13:37;18.00;99.90
12887;DHT22;6511;49.746;6.094;2022-10-16T15:16:03;18.00;99.90
12887;DHT22;6511;49.746;6.094;2022-10-16T15:18:28;18.00;99.90
12887;DHT22;6511;49.746;6.094;2022-10-16T15:20:54;18.00;99.90
12887;DHT22;6511;49.746;6.094;2022-10-16T15:23:21;17.80;99.90
12887;DHT22;6511;49.746;6.094;2022-10-16T15:25:51;17.70;99.90
12887;DHT22;6511;49.746;6.094;2022-10-16T15:28:17;17.80;99.90
12887;DHT22;6511;49.746;6.094;2022-10-16T15:30:44;17.70;99.90
12887;DHT22;6511;49.746;6.094;2022-10-16T15:33:22;17.70;99.90
12887;DHT22;6511;49.746;6.094;2022-10-16T15:35:52;17.60;99.90
12887;DHT22;6511;49.746;6.094;2022-10-16T15:38:19;17.60;99.90
12887;DHT22;6511;49.746;6.094;2022-10-16T15:40:46;17.60;99.90
12887;DHT22;6511;49.746;6.094;2022-10-16T15:43:12;17.70;99.90
12887;DHT22;6511;49.746;6.094;2022-10-16T15:45:38;17.60;99.90
12887;DHT22;6511;49.746;6.094;2022-10-16T15:48:04;17.50;99.90
12887;DHT22;6511;49.746;6.094;2022-10-16T15:50:30;17.60;99.90
12887;DHT22;6511;49.746;6.094;2022-10-16T15:52:56;17.50;99.90
12887;DHT22;6511;49.746;6.094;2022-10-16T15:55:22;17.50;99.90
12887;DHT22;6511;49.746;6.094;2022-10-16T15:57:48;17.50;99.90
12887;DHT22;6511;49.746;6.094;2022-10-16T16:00:16;17.50;99.90
12887;DHT22;6511;49.746;6.094;2022-10-16T16:02:43;17.50;99.90
12887;DHT22;6511;49.746;6.094;2022-10-16T16:05:10;17.50;99.90
12887;DHT22;6511;49.746;6.094;2022-10-16T16:07:37;17.40;99.90
12887;DHT22;6511;49.746;6.094;2022-10-16T16:10:06;17.40;99.90
12887;DHT22;6511;49.746;6.094;2022-10-16T16:12:33;17.40;99.90
12887;DHT22;6511;49.746;6.094;2022-10-16T16:14:58;17.30;99.90
12887;DHT22;6511;49.746;6.094;2022-10-16T16:17:24;17.30;99.90
12887;DHT22;6511;49.746;6.094;2022-10-16T16:19:50;17.20;99.90
12887;DHT22;6511;49.746;6.094;2022-10-16T16:22:16;17.20;99.90
12887;DHT22;6511;49.746;6.094;2022-10-16T16:24:44;17.20;99.90
12887;DHT22;6511;49.746;6.094;2022-10-16T16:27:10;17.20;99.90
12887;DHT22;6511;49.746;6.094;2022-10-16T16:29:39;17.10;99.90
12887;DHT22;6511;49.746;6.094;2022-10-16T16:32:05;17.00;99.90
12887;DHT22;6511;49.746;6.094;2022-10-16T16:34:31;17.00;99.90
12887;DHT22;6511;49.746;6.094;2022-10-16T16:36:57;17.00;99.90
12887;DHT22;6511;49.746;6.094;2022-10-16T16:39:23;17.00;99.90
12887;DHT22;6511;49.746;6.094;2022-10-16T16:41:49;16.90;99.90
12887;DHT22;6511;49.746;6.094;2022-10-16T16:44:16;17.00;99.90
12887;DHT22;6511;49.746;6.094;2022-10-16T16:46:42;17.00;99.90
12887;DHT22;6511;49.746;6.094;2022-10-16T16:49:10;16.90;99.90
12887;DHT22;6511;49.746;6.094;2022-10-16T16:51:36;16.80;99.90
12887;DHT22;6511;49.746;6.094;2022-10-16T16:54:02;16.70;99.90
12887;DHT22;6511;49.746;6.094;2022-10-16T16:56:27;16.50;99.90
12887;DHT22;6511;49.746;6.094;2022-10-16T16:58:54;16.50;99.90
12887;DHT22;6511;49.746;6.094;2022-10-16T17:01:22;16.40;99.90
12887;DHT22;6511;49.746;6.094;2022-10-16T17:03:50;16.40;99.90
12887;DHT22;6511;49.746;6.094;2022-10-16T17:06:18;16.40;99.90
12887;DHT22;6511;49.746;6.094;2022-10-16T17:08:44;16.30;99.90
12887;DHT22;6511;49.746;6.094;2022-10-16T17:11:14;16.30;99.90
12887;DHT22;6511;49.746;6.094;2022-10-16T17:13:41;16.20;99.90
12887;DHT22;6511;49.746;6.094;2022-10-16T17:16:07;16.20;99.90
12887;DHT22;6511;49.746;6.094;2022-10-16T17:18:34;16.10;99.90
12887;DHT22;6511;49.746;6.094;2022-10-16T17:21:01;15.90;99.90
12887;DHT22;6511;49.746;6.094;2022-10-16T17:23:27;15.90;99.90
12887;DHT22;6511;49.746;6.094;2022-10-16T17:25:53;15.80;99.90
12887;DHT22;6511;49.746;6.094;2022-10-16T17:28:19;15.90;99.90
12887;DHT22;6511;49.746;6.094;2022-10-16T17:30:44;15.80;99.90
12887;DHT22;6511;49.746;6.094;2022-10-16T17:33:11;15.80;99.90
12887;DHT22;6511;49.746;6.094;2022-10-16T17:35:42;15.80;99.90
12887;DHT22;6511;49.746;6.094;2022-10-16T17:38:09;15.70;99.90
12887;DHT22;6511;49.746;6.094;2022-10-16T17:40:35;15.60;99.90
12887;DHT22;6511;49.746;6.094;2022-10-16T17:43:01;15.60;99.90
12887;DHT22;6511;49.746;6.094;2022-10-16T17:45:27;15.50;99.90
12887;DHT22;6511;49.746;6.094;2022-10-16T17:47:53;15.50;99.90
12887;DHT22;6511;49.746;6.094;2022-10-16T17:50:19;15.50;99.90
12887;DHT22;6511;49.746;6.094;2022-10-16T17:52:45;15.50;99.90
12887;DHT22;6511;49.746;6.094;2022-10-16T17:55:11;15.50;99.90
12887;DHT22;6511;49.746;6.094;2022-10-16T17:57:37;15.40;99.90
12887;DHT22;6511;49.746;6.094;2022-10-16T18:00:04;15.30;99.90
12887;DHT22;6511;49.746;6.094;2022-10-16T18:02:30;15.30;99.90
12887;DHT22;6511;49.746;6.094;2022-10-16T18:04:56;15.20;99.90
12887;DHT22;6511;49.746;6.094;2022-10-16T18:07:21;15.10;99.90
12887;DHT22;6511;49.746;6.094;2022-10-16T18:09:47;15.10;99.90
12887;DHT22;6511;49.746;6.094;2022-10-16T18:12:13;15.00;99.90
12887;DHT22;6511;49.746;6.094;2022-10-16T18:14:40;15.00;99.90
12887;DHT22;6511;49.746;6.094;2022-10-16T18:17:06;15.00;99.90
12887;DHT22;6511;49.746;6.094;2022-10-16T18:19:32;14.90;99.90
12887;DHT22;6511;49.746;6.094;2022-10-16T18:21:57;14.80;99.90
12887;DHT22;6511;49.746;6.094;2022-10-16T18:24:24;14.70;99.90
12887;DHT22;6511;49.746;6.094;2022-10-16T18:26:51;14.80;99.90
12887;DHT22;6511;49.746;6.094;2022-10-16T18:29:21;14.80;99.90
12887;DHT22;6511;49.746;6.094;2022-10-16T18:31:47;14.70;99.90
12887;DHT22;6511;49.746;6.094;2022-10-16T18:34:13;14.70;99.90
12887;DHT22;6511;49.746;6.094;2022-10-16T18:36:39;14.70;99.90
12887;DHT22;6511;49.746;6.094;2022-10-16T18:39:08;14.70;99.90
12887;DHT22;6511;49.746;6.094;2022-10-16T18:41:39;14.60;99.90
12887;DHT22;6511;49.746;6.094;2022-10-16T18:44:05;14.60;99.90
12887;DHT22;6511;49.746;6.094;2022-10-16T18:46:31;14.50;99.90
12887;DHT22;6511;49.746;6.094;2022-10-16T18:48:57;14.30;99.90
12887;DHT22;6511;49.746;6.094;2022-10-16T18:51:36;14.10;99.90
12887;DHT22;6511;49.746;6.094;2022-10-16T18:54:05;14.00;99.90
12887;DHT22;6511;49.746;6.094;2022-10-16T18:56:31;13.90;99.90
12887;DHT22;6511;49.746;6.094;2022-10-16T18:58:59;13.80;99.90
12887;DHT22;6511;49.746;6.094;2022-10-16T19:01:26;13.90;99.90
12887;DHT22;6511;49.746;6.094;2022-10-16T19:04:01;13.80;99.90
12887;DHT22;6511;49.746;6.094;2022-10-16T19:06:28;13.80;99.90
12887;DHT22;6511;49.746;6.094;2022-10-16T19:08:55;13.80;99.90
12887;DHT22;6511;49.746;6.094;2022-10-16T19:11:22;13.60;99.90
12887;DHT22;6511;49.746;6.094;2022-10-16T19:13:50;13.50;99.90
12887;DHT22;6511;49.746;6.094;2022-10-16T19:16:21;13.40;99.90
12887;DHT22;6511;49.746;6.094;2022-10-16T19:18:48;13.40;99.90
12887;DHT22;6511;49.746;6.094;2022-10-16T19:21:15;13.30;99.90
12887;DHT22;6511;49.746;6.094;2022-10-16T19:23:40;13.20;99.90
12887;DHT22;6511;49.746;6.094;2022-10-16T19:26:14;13.20;99.90
12887;DHT22;6511;49.746;6.094;2022-10-16T19:28:40;13.20;99.90
12887;DHT22;6511;49.746;6.094;2022-10-16T19:31:08;13.30;99.90
12887;DHT22;6511;49.746;6.094;2022-10-16T19:33:36;13.30;99.90
12887;DHT22;6511;49.746;6.094;2022-10-16T19:36:18;13.30;99.90
12887;DHT22;6511;49.746;6.094;2022-10-16T19:38:45;13.30;99.90
12887;DHT22;6511;49.746;6.094;2022-10-16T19:41:15;13.30;99.90
12887;DHT22;6511;49.746;6.094;2022-10-16T19:43:42;13.30;99.90
12887;DHT22;6511;49.746;6.094;2022-10-16T19:46:10;13.20;99.90
12887;DHT22;6511;49.746;6.094;2022-10-16T19:48:37;13.20;99.90
12887;DHT22;6511;49.746;6.094;2022-10-16T19:51:04;13.20;99.90
12887;DHT22;6511;49.746;6.094;2022-10-16T19:53:31;13.20;99.90
12887;DHT22;6511;49.746;6.094;2022-10-16T19:55:57;13.30;99.90
12887;DHT22;6511;49.746;6.094;2022-10-16T19:58:23;13.30;99.90
12887;DHT22;6511;49.746;6.094;2022-10-16T20:00:49;13.30;99.90
12887;DHT22;6511;49.746;6.094;2022-10-16T20:03:15;13.30;99.90
12887;DHT22;6511;49.746;6.094;2022-10-16T20:05:52;13.30;99.90
12887;DHT22;6511;49.746;6.094;2022-10-16T20:08:17;13.30;99.90
12887;DHT22;6511;49.746;6.094;2022-10-16T20:10:50;13.30;99.90
12887;DHT22;6511;49.746;6.094;2022-10-16T20:13:16;13.40;99.90
12887;DHT22;6511;49.746;6.094;2022-10-16T20:15:42;13.40;99.90
12887;DHT22;6511;49.746;6.094;2022-10-16T20:18:07;13.40;99.90
12887;DHT22;6511;49.746;6.094;2022-10-16T20:20:41;13.30;99.90
12887;DHT22;6511;49.746;6.094;2022-10-16T20:23:07;13.20;99.90
12887;DHT22;6511;49.746;6.094;2022-10-16T20:25:37;13.00;99.90
12887;DHT22;6511;49.746;6.094;2022-10-16T20:28:04;12.90;99.90
12887;DHT22;6511;49.746;6.094;2022-10-16T20:30:37;12.70;99.90
12887;DHT22;6511;49.746;6.094;2022-10-16T20:33:04;12.70;99.90
12887;DHT22;6511;49.746;6.094;2022-10-16T20:35:36;12.80;99.90
12887;DHT22;6511;49.746;6.094;2022-10-16T20:38:03;12.80;99.90
12887;DHT22;6511;49.746;6.094;2022-10-16T20:40:28;12.80;99.90
12887;DHT22;6511;49.746;6.094;2022-10-16T20:42:54;12.70;99.90
12887;DHT22;6511;49.746;6.094;2022-10-16T20:45:19;12.50;99.90
12887;DHT22;6511;49.746;6.094;2022-10-16T20:47:45;12.50;99.90
12887;DHT22;6511;49.746;6.094;2022-10-16T20:50:10;12.40;99.90
12887;DHT22;6511;49.746;6.094;2022-10-16T20:52:38;12.40;99.90
12887;DHT22;6511;49.746;6.094;2022-10-16T20:55:03;12.40;99.90
12887;DHT22;6511;49.746;6.094;2022-10-16T20:57:29;12.40;99.90
12887;DHT22;6511;49.746;6.094;2022-10-16T20:59:55;12.40;99.90
12887;DHT22;6511;49.746;6.094;2022-10-16T21:02:21;12.50;99.90
12887;DHT22;6511;49.746;6.094;2022-10-16T21:04:47;12.60;99.90
12887;DHT22;6511;49.746;6.094;2022-10-16T21:07:14;12.60;99.90
12887;DHT22;6511;49.746;6.094;2022-10-16T21:09:40;12.60;99.90
12887;DHT22;6511;49.746;6.094;2022-10-16T21:12:05;12.70;99.90
12887;DHT22;6511;49.746;6.094;2022-10-16T21:14:31;12.70;99.90
12887;DHT22;6511;49.746;6.094;2022-10-16T21:16:56;12.70;99.90
12887;DHT22;6511;49.746;6.094;2022-10-16T21:19:22;12.60;99.90
12887;DHT22;6511;49.746;6.094;2022-10-16T21:21:50;12.50;99.90
12887;DHT22;6511;49.746;6.094;2022-10-16T21:24:15;12.20;99.90
12887;DHT22;6511;49.746;6.094;2022-10-16T21:26:42;12.10;99.90
12887;DHT22;6511;49.746;6.094;2022-10-16T21:29:08;12.10;99.90
12887;DHT22;6511;49.746;6.094;2022-10-16T21:31:34;12.10;99.90
12887;DHT22;6511;49.746;6.094;2022-10-16T21:34:00;12.10;99.90
12887;DHT22;6511;49.746;6.094;2022-10-16T21:36:28;12.20;99.90
12887;DHT22;6511;49.746;6.094;2022-10-16T21:38:54;12.20;99.90
12887;DHT22;6511;49.746;6.094;2022-10-16T21:41:25;12.30;99.90
12887;DHT22;6511;49.746;6.094;2022-10-16T21:43:52;12.40;99.90
12887;DHT22;6511;49.746;6.094;2022-10-16T21:46:20;12.30;99.90
12887;DHT22;6511;49.746;6.094;2022-10-16T21:48:47;12.20;99.90
12887;DHT22;6511;49.746;6.094;2022-10-16T21:51:13;12.20;99.90
12887;DHT22;6511;49.746;6.094;2022-10-16T21:53:39;12.20;99.90
12887;DHT22;6511;49.746;6.094;2022-10-16T21:56:14;12.20;99.90
12887;DHT22;6511;49.746;6.094;2022-10-16T21:58:46;12.30;99.90
12887;DHT22;6511;49.746;6.094;2022-10-16T22:01:18;12.30;99.90
12887;DHT22;6511;49.746;6.094;2022-10-16T22:03:45;12.10;99.90
12887;DHT22;6511;49.746;6.094;2022-10-16T22:06:12;12.00;99.90
12887;DHT22;6511;49.746;6.094;2022-10-16T22:08:39;11.90;99.90
12887;DHT22;6511;49.746;6.094;2022-10-16T22:11:08;11.80;99.90
12887;DHT22;6511;49.746;6.094;2022-10-16T22:13:34;11.90;99.90
12887;DHT22;6511;49.746;6.094;2022-10-16T22:16:00;12.00;99.90
12887;DHT22;6511;49.746;6.094;2022-10-16T22:18:26;12.00;99.90
12887;DHT22;6511;49.746;6.094;2022-10-16T22:20:52;12.10;99.90
12887;DHT22;6511;49.746;6.094;2022-10-16T22:23:17;12.20;99.90
12887;DHT22;6511;49.746;6.094;2022-10-16T22:25:43;12.00;99.90
12887;DHT22;6511;49.746;6.094;2022-10-16T22:28:09;12.00;99.90
12887;DHT22;6511;49.746;6.094;2022-10-16T22:30:35;12.00;99.90
12887;DHT22;6511;49.746;6.094;2022-10-16T22:33:02;12.10;99.90
12887;DHT22;6511;49.746;6.094;2022-10-16T22:35:27;12.10;99.90
12887;DHT22;6511;49.746;6.094;2022-10-16T22:37:53;12.00;99.90
12887;DHT22;6511;49.746;6.094;2022-10-16T22:40:18;12.00;99.90
12887;DHT22;6511;49.746;6.094;2022-10-16T22:42:44;12.00;99.90
12887;DHT22;6511;49.746;6.094;2022-10-16T22:45:09;12.10;99.90
12887;DHT22;6511;49.746;6.094;2022-10-16T22:47:35;12.10;99.90
12887;DHT22;6511;49.746;6.094;2022-10-16T22:50:04;11.90;99.90
12887;DHT22;6511;49.746;6.094;2022-10-16T22:52:30;11.90;99.90
12887;DHT22;6511;49.746;6.094;2022-10-16T22:54:56;11.90;99.90
12887;DHT22;6511;49.746;6.094;2022-10-16T22:57:22;11.90;99.90
12887;DHT22;6511;49.746;6.094;2022-10-16T22:59:48;11.80;99.90
12887;DHT22;6511;49.746;6.094;2022-10-16T23:02:13;11.70;99.90
12887;DHT22;6511;49.746;6.094;2022-10-16T23:04:39;11.50;99.90
12887;DHT22;6511;49.746;6.094;2022-10-16T23:07:04;11.30;99.90
12887;DHT22;6511;49.746;6.094;2022-10-16T23:09:30;11.40;99.90
12887;DHT22;6511;49.746;6.094;2022-10-16T23:11:56;11.40;99.90
12887;DHT22;6511;49.746;6.094;2022-10-16T23:14:22;11.50;99.90
12887;DHT22;6511;49.746;6.094;2022-10-16T23:16:48;11.50;99.90
12887;DHT22;6511;49.746;6.094;2022-10-16T23:19:14;11.60;99.90
12887;DHT22;6511;49.746;6.094;2022-10-16T23:21:40;11.70;99.90
12887;DHT22;6511;49.746;6.094;2022-10-16T23:24:05;11.70;99.90
12887;DHT22;6511;49.746;6.094;2022-10-16T23:26:34;11.70;99.90
12887;DHT22;6511;49.746;6.094;2022-10-16T23:29:00;11.70;99.90
12887;DHT22;6511;49.746;6.094;2022-10-16T23:31:27;11.50;99.90
12887;DHT22;6511;49.746;6.094;2022-10-16T23:33:54;11.30;99.90
12887;DHT22;6511;49.746;6.094;2022-10-16T23:36:21;11.30;99.90
12887;DHT22;6511;49.746;6.094;2022-10-16T23:38:47;11.30;99.90
12887;DHT22;6511;49.746;6.094;2022-10-16T23:41:13;11.20;99.90
12887;DHT22;6511;49.746;6.094;2022-10-16T23:43:39;11.20;99.90
12887;DHT22;6511;49.746;6.094;2022-10-16T23:46:06;11.20;99.90
12887;DHT22;6511;49.746;6.094;2022-10-16T23:48:33;11.20;99.90
12887;DHT22;6511;49.746;6.094;2022-10-16T23:50:58;11.20;99.90
12887;DHT22;6511;49.746;6.094;2022-10-16T23:53:24;11.20;99.90
12887;DHT22;6511;49.746;6.094;2022-10-16T23:55:50;11.30;99.90
12887;DHT22;6511;49.746;6.094;2022-10-16T23:58:16;11.30;99.90
